»·PEaware :: SWA1272 KSAN-KOAK

SWA1272 :: KSAN-KOAK

FLIGHT INFORMATION

Flight Status: Arrived
Operator:
Southwest Airlines
More flights by this operator :: More flights under this callsign
Pilot: Anonymous 12234 (12234)
Aircraft: BOEING 737-200
(B732)
More flights by this aircraft type
Origin: KSAN San Diego Intl-Lindbergh
United States
Destination: KOAK Metro Oakland Intl
United States
More flights between these airports :: More routes between these airports
Route: PEBLE6 SLI J134 LAX J1 AVE PXN5
File this flight plan on PilotEdge
Remarks:
Altitude:
(Current/Filed)
32,000ft
Speed:
(Current/Filed)
452kts
Departed: 08-Aug-18 04:24 PM
Arrived: 08-Aug-18 05:30 PM
Distance/Time
Traveled:
387nm/1:05
Distance/Time
To Go:
Arrived

Flight Plot

Page will automatically refresh every two minutes.

Flight plan parsing failed; only flown route is shown


Map Options




Map Legend


Flown Route
Filed Route
Departure Airport
Arrival Airport
Navaid (VOR, NDB)
Fix

Horizontal Profiles

Position Reports

Time Latitude Longitude Heading Altitude Ground
Speed
08-Aug-18 16:05 32.733104 -117.196726 140 24ft 0kts
08-Aug-18 16:06 32.733104 -117.196726 140 24ft 0kts
08-Aug-18 16:07 32.733104 -117.196726 140 24ft 0kts
08-Aug-18 16:08 32.733104 -117.196726 140 24ft 0kts
08-Aug-18 16:09 32.733104 -117.196726 140 24ft 0kts
08-Aug-18 16:10 32.733104 -117.196726 140 24ft 0kts
08-Aug-18 16:11 32.733104 -117.196726 140 24ft 0kts
08-Aug-18 16:12 32.733104 -117.196726 140 24ft 0kts
08-Aug-18 16:13 32.733101 -117.196724 140 24ft 0kts
08-Aug-18 16:14 32.733239 -117.197218 68 25ft 2kts
08-Aug-18 16:15 32.733683 -117.197022 20 24ft 0kts
08-Aug-18 16:16 32.733684 -117.197022 20 24ft 0kts
08-Aug-18 16:17 32.733684 -117.197022 20 24ft 0kts
08-Aug-18 16:18 32.733684 -117.197022 20 24ft 0kts
08-Aug-18 16:19 32.733684 -117.197022 20 24ft 0kts
08-Aug-18 16:20 32.733734 -117.196999 20 24ft 2kts
08-Aug-18 16:21 32.733155 -117.192284 106 23ft 19kts
08-Aug-18 16:22 32.731708 -117.186352 105 21ft 18kts
08-Aug-18 16:23 32.730396 -117.180916 106 20ft 16kts
08-Aug-18 16:24 32.729483 -117.176926 82 22ft 5kts
08-Aug-18 16:25 32.732261 -117.184448 286 21ft 112kts
08-Aug-18 16:26 32.751609 -117.230254 307 1957ft 183kts
08-Aug-18 16:27 32.786620 -117.282794 308 4289ft 228kts
08-Aug-18 16:28 32.826459 -117.349373 306 6883ft 264kts
08-Aug-18 16:29 32.870801 -117.425303 306 9491ft 289kts
08-Aug-18 16:30 32.920954 -117.496183 329 11406ft 318kts
08-Aug-18 16:31 32.989196 -117.560690 314 13704ft 333kts
08-Aug-18 16:32 33.049465 -117.644986 309 15872ft 343kts
08-Aug-18 16:33 33.105030 -117.728948 309 17670ft 351kts
08-Aug-18 16:34 33.159736 -117.809130 316 19199ft 358kts
08-Aug-18 16:35 33.241865 -117.869945 323 20708ft 365kts
08-Aug-18 16:36 33.322218 -117.938981 326 22084ft 372kts
08-Aug-18 16:37 33.409844 -118.005677 328 23352ft 379kts
08-Aug-18 16:38 33.496333 -118.069449 328 24450ft 385kts
08-Aug-18 16:39 33.584240 -118.136095 327 25446ft 391kts
08-Aug-18 16:40 33.673783 -118.205150 324 26353ft 396kts
08-Aug-18 16:41 33.753087 -118.285943 320 27142ft 401kts
08-Aug-18 16:42 33.834582 -118.362381 324 27893ft 405kts
08-Aug-18 16:43 33.921842 -118.439239 324 28828ft 404kts
08-Aug-18 16:44 34.003527 -118.521351 317 29458ft 408kts
08-Aug-18 16:45 34.085525 -118.608437 324 30424ft 403kts
08-Aug-18 16:46 34.161634 -118.670580 325 31000ft 403kts
08-Aug-18 16:47 34.243610 -118.750267 315 31700ft 402kts
08-Aug-18 16:48 34.323613 -118.843218 315 31958ft 410kts
08-Aug-18 16:49 34.406765 -118.931470 321 31958ft 421kts
08-Aug-18 16:50 34.499315 -119.016277 325 31957ft 430kts
08-Aug-18 16:51 34.599690 -119.093501 328 31956ft 431kts
08-Aug-18 16:52 34.700088 -119.170847 325 31958ft 431kts
08-Aug-18 16:53 34.795745 -119.255922 323 31948ft 432kts
08-Aug-18 16:54 34.891475 -119.341707 323 31934ft 433kts
08-Aug-18 16:55 34.987926 -119.428094 323 31934ft 434kts
08-Aug-18 16:56 35.083555 -119.516594 323 31929ft 436kts
08-Aug-18 16:57 35.171294 -119.595830 325 31935ft 438kts
08-Aug-18 16:58 35.267766 -119.676808 327 31934ft 440kts
08-Aug-18 16:59 35.370386 -119.756957 328 31911ft 443kts
08-Aug-18 17:00 35.470254 -119.832686 329 31924ft 444kts
08-Aug-18 17:01 35.574908 -119.911920 328 31935ft 445kts
08-Aug-18 17:02 35.673352 -120.002876 323 31951ft 446kts
08-Aug-18 17:03 35.773962 -120.089604 328 31946ft 445kts
08-Aug-18 17:04 35.879810 -120.162667 332 31941ft 444kts
08-Aug-18 17:05 35.986817 -120.233691 332 31926ft 442kts
08-Aug-18 17:06 36.090556 -120.311310 328 31910ft 440kts
08-Aug-18 17:07 36.185282 -120.385046 328 31922ft 438kts
08-Aug-18 17:08 36.286190 -120.463582 329 31911ft 436kts
08-Aug-18 17:09 36.384038 -120.539775 329 31907ft 435kts
08-Aug-18 17:10 36.485734 -120.618347 330 31901ft 436kts
08-Aug-18 17:11 36.582212 -120.687891 330 31904ft 437kts
08-Aug-18 17:12 36.680945 -120.773820 321 31917ft 438kts
08-Aug-18 17:13 36.775395 -120.868741 321 31760ft 433kts
08-Aug-18 17:14 36.868741 -120.962820 319 28866ft 438kts
08-Aug-18 17:15 36.957768 -121.060441 318 26708ft 422kts
08-Aug-18 17:16 37.042176 -121.157104 317 24495ft 410kts
08-Aug-18 17:17 37.121109 -121.252721 314 21663ft 415kts
08-Aug-18 17:18 37.193496 -121.343631 314 19560ft 401kts
08-Aug-18 17:19 37.269719 -121.439340 314 16675ft 384kts
08-Aug-18 17:20 37.341443 -121.529741 314 14546ft 371kts
08-Aug-18 17:21 37.393664 -121.595008 316 12966ft 362kts
08-Aug-18 17:22 37.461213 -121.675103 315 10993ft 351kts
08-Aug-18 17:23 37.516155 -121.766362 293 9678ft 306kts
08-Aug-18 17:24 37.547648 -121.856117 293 8230ft 278kts
08-Aug-18 17:25 37.577295 -121.940708 293 5892ft 267kts
08-Aug-18 17:26 37.602191 -122.021366 281 4427ft 245kts
08-Aug-18 17:27 37.605881 -122.101892 308 3030ft 225kts
08-Aug-18 17:28 37.653212 -122.141919 308 1720ft 172kts
08-Aug-18 17:29 37.678573 -122.179557 308 661ft 130kts
08-Aug-18 17:30 37.701548 -122.214309 308 56ft 127kts
08-Aug-18 17:31 37.714174 -122.231370 346 16ft 22kts
08-Aug-18 17:32 37.713984 -122.229220 129 15ft 17kts
08-Aug-18 17:33 37.709177 -122.221982 131 15ft 31kts
08-Aug-18 17:34 37.708096 -122.216623 40 16ft 13kts
08-Aug-18 17:35 37.710191 -122.214362 46 15ft 10kts
08-Aug-18 17:36 37.711175 -122.213313 34 15ft 0kts
08-Aug-18 17:37 37.711175 -122.213313 34 15ft 0kts

Navigation Log

Ident Type
Flight plan parsing failed, navigation log unavailable